sensor_id;sensor_type;location;lat;lon;timestamp;P1;durP1;ratioP1;P2;durP2;ratioP2
3261;SDS011;1643;47.746;9.000;2022-09-13T00:00:20;2.00;;;1.90;;
3261;SDS011;1643;47.746;9.000;2022-09-13T00:02:45;2.60;;;1.70;;
3261;SDS011;1643;47.746;9.000;2022-09-13T00:05:11;4.33;;;2.00;;
3261;SDS011;1643;47.746;9.000;2022-09-13T00:07:36;2.20;;;2.00;;
3261;SDS011;1643;47.746;9.000;2022-09-13T00:10:02;2.10;;;2.00;;
3261;SDS011;1643;47.746;9.000;2022-09-13T00:12:28;2.90;;;2.70;;
3261;SDS011;1643;47.746;9.000;2022-09-13T00:14:54;2.57;;;2.37;;
3261;SDS011;1643;47.746;9.000;2022-09-13T00:17:19;2.00;;;1.90;;
3261;SDS011;1643;47.746;9.000;2022-09-13T00:19:45;4.13;;;2.87;;
3261;SDS011;1643;47.746;9.000;2022-09-13T00:22:11;3.60;;;2.43;;
3261;SDS011;1643;47.746;9.000;2022-09-13T00:24:36;2.70;;;2.50;;
3261;SDS011;1643;47.746;9.000;2022-09-13T00:27:02;2.10;;;2.00;;
3261;SDS011;1643;47.746;9.000;2022-09-13T00:29:28;2.40;;;2.17;;
3261;SDS011;1643;47.746;9.000;2022-09-13T00:31:54;5.73;;;2.00;;
3261;SDS011;1643;47.746;9.000;2022-09-13T00:34:19;3.23;;;2.30;;
3261;SDS011;1643;47.746;9.000;2022-09-13T00:36:45;3.77;;;2.30;;
3261;SDS011;1643;47.746;9.000;2022-09-13T00:39:10;2.33;;;2.20;;
3261;SDS011;1643;47.746;9.000;2022-09-13T00:41:36;2.60;;;2.40;;
3261;SDS011;1643;47.746;9.000;2022-09-13T00:44:02;3.73;;;2.50;;
3261;SDS011;1643;47.746;9.000;2022-09-13T00:51:35;4.30;;;2.77;;
3261;SDS011;1643;47.746;9.000;2022-09-13T00:54:02;8.30;;;2.43;;
3261;SDS011;1643;47.746;9.000;2022-09-13T00:56:36;2.30;;;2.10;;
3261;SDS011;1643;47.746;9.000;2022-09-13T00:59:09;2.77;;;2.57;;
3261;SDS011;1643;47.746;9.000;2022-09-13T01:01:40;6.13;;;2.20;;
3261;SDS011;1643;47.746;9.000;2022-09-13T01:04:10;5.67;;;2.67;;
3261;SDS011;1643;47.746;9.000;2022-09-13T01:06:36;2.60;;;2.40;;
3261;SDS011;1643;47.746;9.000;2022-09-13T01:09:04;2.87;;;2.67;;
3261;SDS011;1643;47.746;9.000;2022-09-13T01:11:49;2.93;;;2.73;;
3261;SDS011;1643;47.746;9.000;2022-09-13T01:14:38;6.30;;;2.77;;
3261;SDS011;1643;47.746;9.000;2022-09-13T01:17:04;3.00;;;2.70;;
3261;SDS011;1643;47.746;9.000;2022-09-13T01:19:30;3.43;;;3.13;;
3261;SDS011;1643;47.746;9.000;2022-09-13T01:24:58;5.30;;;2.80;;
3261;SDS011;1643;47.746;9.000;2022-09-13T01:30:39;2.57;;;2.37;;
3261;SDS011;1643;47.746;9.000;2022-09-13T01:39:17;2.43;;;2.23;;
3261;SDS011;1643;47.746;9.000;2022-09-13T01:47:11;6.93;;;2.70;;
3261;SDS011;1643;47.746;9.000;2022-09-13T01:55:02;3.10;;;2.90;;
3261;SDS011;1643;47.746;9.000;2022-09-13T01:57:34;3.23;;;3.03;;
3261;SDS011;1643;47.746;9.000;2022-09-13T02:00:14;3.20;;;2.90;;
3261;SDS011;1643;47.746;9.000;2022-09-13T02:02:46;2.87;;;2.67;;
3261;SDS011;1643;47.746;9.000;2022-09-13T02:08:06;2.70;;;2.50;;
3261;SDS011;1643;47.746;9.000;2022-09-13T02:10:44;4.10;;;2.53;;
3261;SDS011;1643;47.746;9.000;2022-09-13T02:13:23;2.80;;;2.60;;
3261;SDS011;1643;47.746;9.000;2022-09-13T02:15:53;5.20;;;2.50;;
3261;SDS011;1643;47.746;9.000;2022-09-13T02:20:52;2.87;;;2.67;;
3261;SDS011;1643;47.746;9.000;2022-09-13T02:23:25;2.80;;;2.60;;
3261;SDS011;1643;47.746;9.000;2022-09-13T02:25:57;2.93;;;2.73;;
3261;SDS011;1643;47.746;9.000;2022-09-13T02:28:27;2.93;;;2.70;;
3261;SDS011;1643;47.746;9.000;2022-09-13T02:30:58;2.73;;;2.53;;
3261;SDS011;1643;47.746;9.000;2022-09-13T02:33:29;3.47;;;2.50;;
3261;SDS011;1643;47.746;9.000;2022-09-13T02:35:59;2.50;;;2.30;;
3261;SDS011;1643;47.746;9.000;2022-09-13T02:38:30;2.60;;;2.40;;
3261;SDS011;1643;47.746;9.000;2022-09-13T02:41:26;2.83;;;2.63;;
3261;SDS011;1643;47.746;9.000;2022-09-13T02:44:16;2.20;;;2.00;;
3261;SDS011;1643;47.746;9.000;2022-09-13T02:57:41;3.40;;;2.50;;
3261;SDS011;1643;47.746;9.000;2022-09-13T03:00:12;2.60;;;2.40;;
3261;SDS011;1643;47.746;9.000;2022-09-13T03:02:38;3.10;;;2.80;;
3261;SDS011;1643;47.746;9.000;2022-09-13T03:05:05;3.40;;;2.80;;
3261;SDS011;1643;47.746;9.000;2022-09-13T03:07:31;4.30;;;2.80;;
3261;SDS011;1643;47.746;9.000;2022-09-13T03:10:01;2.87;;;2.67;;
3261;SDS011;1643;47.746;9.000;2022-09-13T03:12:54;3.27;;;3.07;;
3261;SDS011;1643;47.746;9.000;2022-09-13T03:29:32;3.73;;;3.43;;
3261;SDS011;1643;47.746;9.000;2022-09-13T03:37:56;4.03;;;3.63;;
3261;SDS011;1643;47.746;9.000;2022-09-13T03:43:00;4.97;;;4.00;;
3261;SDS011;1643;47.746;9.000;2022-09-13T03:45:39;3.07;;;2.83;;
3261;SDS011;1643;47.746;9.000;2022-09-13T03:48:09;6.03;;;2.93;;
3261;SDS011;1643;47.746;9.000;2022-09-13T03:50:36;6.90;;;3.13;;
3261;SDS011;1643;47.746;9.000;2022-09-13T03:53:11;2.93;;;2.40;;
3261;SDS011;1643;47.746;9.000;2022-09-13T03:55:40;3.00;;;2.70;;
3261;SDS011;1643;47.746;9.000;2022-09-13T03:58:09;2.43;;;2.20;;
3261;SDS011;1643;47.746;9.000;2022-09-13T04:00:40;3.10;;;2.43;;
3261;SDS011;1643;47.746;9.000;2022-09-13T04:03:06;2.60;;;2.40;;
3261;SDS011;1643;47.746;9.000;2022-09-13T04:05:32;2.87;;;2.67;;
3261;SDS011;1643;47.746;9.000;2022-09-13T04:07:58;2.33;;;2.20;;
3261;SDS011;1643;47.746;9.000;2022-09-13T04:10:25;3.30;;;2.77;;
3261;SDS011;1643;47.746;9.000;2022-09-13T04:12:52;2.50;;;2.30;;
3261;SDS011;1643;47.746;9.000;2022-09-13T04:15:18;3.13;;;2.87;;
3261;SDS011;1643;47.746;9.000;2022-09-13T04:17:45;2.50;;;2.30;;
3261;SDS011;1643;47.746;9.000;2022-09-13T04:20:11;2.40;;;2.20;;
3261;SDS011;1643;47.746;9.000;2022-09-13T04:22:37;3.63;;;2.47;;
3261;SDS011;1643;47.746;9.000;2022-09-13T04:25:03;3.60;;;2.60;;
3261;SDS011;1643;47.746;9.000;2022-09-13T04:27:29;2.80;;;2.43;;
3261;SDS011;1643;47.746;9.000;2022-09-13T04:29:55;2.23;;;2.03;;
3261;SDS011;1643;47.746;9.000;2022-09-13T04:32:20;2.80;;;2.60;;
3261;SDS011;1643;47.746;9.000;2022-09-13T04:34:46;3.33;;;2.03;;
3261;SDS011;1643;47.746;9.000;2022-09-13T04:37:12;2.20;;;2.10;;
3261;SDS011;1643;47.746;9.000;2022-09-13T04:39:37;2.33;;;2.23;;
3261;SDS011;1643;47.746;9.000;2022-09-13T04:42:03;3.70;;;2.77;;
3261;SDS011;1643;47.746;9.000;2022-09-13T04:44:31;2.50;;;2.30;;
3261;SDS011;1643;47.746;9.000;2022-09-13T04:46:57;2.20;;;2.10;;
3261;SDS011;1643;47.746;9.000;2022-09-13T04:49:24;2.27;;;2.17;;
3261;SDS011;1643;47.746;9.000;2022-09-13T04:51:49;2.00;;;1.90;;
3261;SDS011;1643;47.746;9.000;2022-09-13T04:54:15;2.30;;;2.20;;
3261;SDS011;1643;47.746;9.000;2022-09-13T04:56:42;2.00;;;1.80;;
3261;SDS011;1643;47.746;9.000;2022-09-13T04:59:09;3.00;;;2.70;;
3261;SDS011;1643;47.746;9.000;2022-09-13T05:01:35;2.30;;;2.20;;
3261;SDS011;1643;47.746;9.000;2022-09-13T05:04:01;2.40;;;2.20;;
3261;SDS011;1643;47.746;9.000;2022-09-13T05:06:28;2.47;;;2.20;;
3261;SDS011;1643;47.746;9.000;2022-09-13T05:08:54;2.33;;;2.10;;
3261;SDS011;1643;47.746;9.000;2022-09-13T05:11:24;2.67;;;2.47;;
3261;SDS011;1643;47.746;9.000;2022-09-13T05:13:52;2.50;;;2.30;;
3261;SDS011;1643;47.746;9.000;2022-09-13T05:16:20;2.20;;;2.07;;
3261;SDS011;1643;47.746;9.000;2022-09-13T05:18:51;2.57;;;2.37;;
3261;SDS011;1643;47.746;9.000;2022-09-13T05:21:17;2.20;;;2.10;;
3261;SDS011;1643;47.746;9.000;2022-09-13T05:23:44;2.50;;;2.27;;
3261;SDS011;1643;47.746;9.000;2022-09-13T05:26:12;2.47;;;2.37;;
3261;SDS011;1643;47.746;9.000;2022-09-13T05:28:38;2.80;;;2.60;;
3261;SDS011;1643;47.746;9.000;2022-09-13T05:31:09;2.20;;;2.10;;
3261;SDS011;1643;47.746;9.000;2022-09-13T05:33:42;2.40;;;2.20;;
3261;SDS011;1643;47.746;9.000;2022-09-13T05:36:09;2.40;;;2.20;;
3261;SDS011;1643;47.746;9.000;2022-09-13T05:38:35;2.40;;;2.20;;
3261;SDS011;1643;47.746;9.000;2022-09-13T05:41:01;3.53;;;2.20;;
3261;SDS011;1643;47.746;9.000;2022-09-13T05:43:30;3.10;;;2.00;;
3261;SDS011;1643;47.746;9.000;2022-09-13T05:48:26;2.03;;;1.93;;
3261;SDS011;1643;47.746;9.000;2022-09-13T05:50:51;2.20;;;2.10;;
3261;SDS011;1643;47.746;9.000;2022-09-13T05:53:17;2.70;;;2.50;;
3261;SDS011;1643;47.746;9.000;2022-09-13T05:55:42;2.50;;;2.30;;
3261;SDS011;1643;47.746;9.000;2022-09-13T05:58:08;2.20;;;2.00;;
3261;SDS011;1643;47.746;9.000;2022-09-13T06:00:33;2.13;;;2.03;;
3261;SDS011;1643;47.746;9.000;2022-09-13T06:02:59;2.40;;;2.20;;
3261;SDS011;1643;47.746;9.000;2022-09-13T06:05:25;2.00;;;1.90;;
3261;SDS011;1643;47.746;9.000;2022-09-13T06:07:50;2.00;;;1.87;;
3261;SDS011;1643;47.746;9.000;2022-09-13T06:10:16;2.27;;;2.17;;
3261;SDS011;1643;47.746;9.000;2022-09-13T06:12:42;1.80;;;1.70;;
3261;SDS011;1643;47.746;9.000;2022-09-13T06:15:07;1.97;;;1.87;;
3261;SDS011;1643;47.746;9.000;2022-09-13T06:17:33;1.93;;;1.83;;
3261;SDS011;1643;47.746;9.000;2022-09-13T06:19:59;2.50;;;2.30;;
3261;SDS011;1643;47.746;9.000;2022-09-13T06:22:25;2.27;;;2.07;;
3261;SDS011;1643;47.746;9.000;2022-09-13T06:24:57;1.70;;;1.60;;
3261;SDS011;1643;47.746;9.000;2022-09-13T06:27:25;19.23;;;2.23;;
3261;SDS011;1643;47.746;9.000;2022-09-13T06:29:53;2.40;;;2.20;;
3261;SDS011;1643;47.746;9.000;2022-09-13T06:32:19;3.10;;;2.00;;
3261;SDS011;1643;47.746;9.000;2022-09-13T06:34:44;2.60;;;2.40;;
3261;SDS011;1643;47.746;9.000;2022-09-13T06:37:10;1.80;;;1.70;;
3261;SDS011;1643;47.746;9.000;2022-09-13T06:39:37;2.20;;;2.10;;
3261;SDS011;1643;47.746;9.000;2022-09-13T06:42:02;2.10;;;2.00;;
3261;SDS011;1643;47.746;9.000;2022-09-13T06:44:28;1.97;;;1.87;;
3261;SDS011;1643;47.746;9.000;2022-09-13T06:46:54;2.13;;;2.03;;
3261;SDS011;1643;47.746;9.000;2022-09-13T06:49:20;2.33;;;2.13;;
3261;SDS011;1643;47.746;9.000;2022-09-13T06:51:46;2.80;;;2.20;;
3261;SDS011;1643;47.746;9.000;2022-09-13T06:54:11;2.67;;;2.47;;
3261;SDS011;1643;47.746;9.000;2022-09-13T06:56:37;2.30;;;2.20;;
3261;SDS011;1643;47.746;9.000;2022-09-13T06:59:05;2.53;;;2.33;;
3261;SDS011;1643;47.746;9.000;2022-09-13T07:01:33;3.30;;;2.30;;
3261;SDS011;1643;47.746;9.000;2022-09-13T07:04:16;2.73;;;2.53;;
3261;SDS011;1643;47.746;9.000;2022-09-13T07:06:46;4.27;;;2.67;;
3261;SDS011;1643;47.746;9.000;2022-09-13T07:09:14;2.50;;;2.10;;
3261;SDS011;1643;47.746;9.000;2022-09-13T07:11:46;3.93;;;2.47;;
3261;SDS011;1643;47.746;9.000;2022-09-13T07:14:14;2.63;;;2.43;;
3261;SDS011;1643;47.746;9.000;2022-09-13T07:16:41;2.53;;;2.30;;
3261;SDS011;1643;47.746;9.000;2022-09-13T07:19:12;3.20;;;2.67;;
3261;SDS011;1643;47.746;9.000;2022-09-13T07:21:39;2.70;;;2.50;;
3261;SDS011;1643;47.746;9.000;2022-09-13T07:24:05;4.00;;;3.00;;
3261;SDS011;1643;47.746;9.000;2022-09-13T07:26:31;3.20;;;2.57;;
3261;SDS011;1643;47.746;9.000;2022-09-13T07:28:58;8.83;;;3.73;;
3261;SDS011;1643;47.746;9.000;2022-09-13T07:31:26;3.23;;;2.67;;
3261;SDS011;1643;47.746;9.000;2022-09-13T07:33:55;3.27;;;3.00;;
3261;SDS011;1643;47.746;9.000;2022-09-13T07:36:22;3.73;;;2.87;;
3261;SDS011;1643;47.746;9.000;2022-09-13T07:38:48;3.57;;;3.23;;
3261;SDS011;1643;47.746;9.000;2022-09-13T07:41:15;3.13;;;2.83;;
3261;SDS011;1643;47.746;9.000;2022-09-13T07:43:42;4.87;;;3.37;;
3261;SDS011;1643;47.746;9.000;2022-09-13T07:46:12;3.60;;;3.30;;
3261;SDS011;1643;47.746;9.000;2022-09-13T07:48:46;12.50;;;2.80;;
3261;SDS011;1643;47.746;9.000;2022-09-13T07:53:40;3.93;;;2.80;;
3261;SDS011;1643;47.746;9.000;2022-09-13T07:56:09;4.80;;;3.73;;
3261;SDS011;1643;47.746;9.000;2022-09-13T07:58:38;9.07;;;3.80;;
3261;SDS011;1643;47.746;9.000;2022-09-13T08:03:50;3.87;;;3.20;;
3261;SDS011;1643;47.746;9.000;2022-09-13T08:06:18;3.70;;;3.33;;
3261;SDS011;1643;47.746;9.000;2022-09-13T08:08:44;3.27;;;3.00;;
3261;SDS011;1643;47.746;9.000;2022-09-13T08:11:11;3.93;;;2.73;;
3261;SDS011;1643;47.746;9.000;2022-09-13T08:13:42;4.80;;;3.03;;
3261;SDS011;1643;47.746;9.000;2022-09-13T08:16:08;4.20;;;3.63;;
3261;SDS011;1643;47.746;9.000;2022-09-13T08:18:33;5.70;;;3.20;;
3261;SDS011;1643;47.746;9.000;2022-09-13T08:20:59;4.33;;;3.90;;
3261;SDS011;1643;47.746;9.000;2022-09-13T08:23:25;3.30;;;3.00;;
3261;SDS011;1643;47.746;9.000;2022-09-13T08:25:52;5.30;;;3.10;;
3261;SDS011;1643;47.746;9.000;2022-09-13T08:28:18;2.90;;;2.60;;
3261;SDS011;1643;47.746;9.000;2022-09-13T08:30:45;3.83;;;2.80;;
3261;SDS011;1643;47.746;9.000;2022-09-13T08:33:11;3.40;;;3.07;;
3261;SDS011;1643;47.746;9.000;2022-09-13T08:35:37;3.30;;;2.53;;
3261;SDS011;1643;47.746;9.000;2022-09-13T08:38:04;3.67;;;3.27;;
3261;SDS011;1643;47.746;9.000;2022-09-13T08:40:37;3.13;;;2.70;;
3261;SDS011;1643;47.746;9.000;2022-09-13T08:45:48;3.60;;;3.07;;
3261;SDS011;1643;47.746;9.000;2022-09-13T08:48:17;4.60;;;3.03;;
3261;SDS011;1643;47.746;9.000;2022-09-13T08:50:44;8.63;;;3.70;;
3261;SDS011;1643;47.746;9.000;2022-09-13T08:53:21;2.60;;;2.40;;
3261;SDS011;1643;47.746;9.000;2022-09-13T09:04:19;3.00;;;2.80;;
3261;SDS011;1643;47.746;9.000;2022-09-13T09:06:53;5.40;;;2.93;;
3261;SDS011;1643;47.746;9.000;2022-09-13T09:09:26;6.60;;;3.60;;
3261;SDS011;1643;47.746;9.000;2022-09-13T09:14:41;2.70;;;2.47;;
3261;SDS011;1643;47.746;9.000;2022-09-13T09:17:59;7.23;;;3.60;;
3261;SDS011;1643;47.746;9.000;2022-09-13T09:20:49;5.83;;;2.90;;
3261;SDS011;1643;47.746;9.000;2022-09-13T09:23:18;2.67;;;2.37;;
3261;SDS011;1643;47.746;9.000;2022-09-13T09:25:46;3.87;;;2.57;;
3261;SDS011;1643;47.746;9.000;2022-09-13T09:28:16;5.00;;;3.20;;
3261;SDS011;1643;47.746;9.000;2022-09-13T09:36:27;2.63;;;2.43;;
3261;SDS011;1643;47.746;9.000;2022-09-13T09:39:13;8.93;;;3.57;;
3261;SDS011;1643;47.746;9.000;2022-09-13T09:41:40;5.00;;;2.87;;
3261;SDS011;1643;47.746;9.000;2022-09-13T09:46:45;4.60;;;3.00;;
3261;SDS011;1643;47.746;9.000;2022-09-13T09:49:32;5.70;;;3.27;;
3261;SDS011;1643;47.746;9.000;2022-09-13T09:52:30;5.53;;;3.33;;
3261;SDS011;1643;47.746;9.000;2022-09-13T09:55:09;5.03;;;3.60;;
3261;SDS011;1643;47.746;9.000;2022-09-13T09:57:49;2.93;;;2.63;;
3261;SDS011;1643;47.746;9.000;2022-09-13T10:00:36;2.70;;;2.50;;
3261;SDS011;1643;47.746;9.000;2022-09-13T10:03:19;3.43;;;2.33;;
3261;SDS011;1643;47.746;9.000;2022-09-13T10:05:48;3.17;;;2.87;;
3261;SDS011;1643;47.746;9.000;2022-09-13T10:08:23;2.40;;;2.20;;
3261;SDS011;1643;47.746;9.000;2022-09-13T10:10:53;3.27;;;2.50;;
3261;SDS011;1643;47.746;9.000;2022-09-13T10:13:21;5.17;;;2.40;;
3261;SDS011;1643;47.746;9.000;2022-09-13T10:15:58;3.63;;;2.63;;
3261;SDS011;1643;47.746;9.000;2022-09-13T10:18:27;3.50;;;2.30;;
3261;SDS011;1643;47.746;9.000;2022-09-13T10:21:03;3.67;;;2.30;;
3261;SDS011;1643;47.746;9.000;2022-09-13T10:23:34;2.40;;;2.20;;
3261;SDS011;1643;47.746;9.000;2022-09-13T10:28:41;2.70;;;2.47;;
3261;SDS011;1643;47.746;9.000;2022-09-13T10:31:09;2.67;;;2.47;;
3261;SDS011;1643;47.746;9.000;2022-09-13T10:33:38;5.13;;;2.20;;
3261;SDS011;1643;47.746;9.000;2022-09-13T10:36:11;3.83;;;2.33;;
3261;SDS011;1643;47.746;9.000;2022-09-13T10:38:38;2.80;;;2.50;;
3261;SDS011;1643;47.746;9.000;2022-09-13T10:41:06;3.10;;;2.37;;
3261;SDS011;1643;47.746;9.000;2022-09-13T10:43:35;3.70;;;2.33;;
3261;SDS011;1643;47.746;9.000;2022-09-13T10:46:02;2.60;;;2.37;;
3261;SDS011;1643;47.746;9.000;2022-09-13T10:48:30;2.27;;;2.07;;
3261;SDS011;1643;47.746;9.000;2022-09-13T10:51:19;2.63;;;2.07;;
3261;SDS011;1643;47.746;9.000;2022-09-13T10:53:45;3.33;;;2.30;;
3261;SDS011;1643;47.746;9.000;2022-09-13T10:56:21;2.43;;;2.23;;
3261;SDS011;1643;47.746;9.000;2022-09-13T10:58:50;3.97;;;2.23;;
3261;SDS011;1643;47.746;9.000;2022-09-13T11:01:43;2.30;;;2.10;;
3261;SDS011;1643;47.746;9.000;2022-09-13T11:07:05;2.13;;;1.90;;
3261;SDS011;1643;47.746;9.000;2022-09-13T11:10:09;2.90;;;2.27;;
3261;SDS011;1643;47.746;9.000;2022-09-13T11:28:47;2.23;;;2.03;;
3261;SDS011;1643;47.746;9.000;2022-09-13T11:37:16;3.83;;;1.97;;
3261;SDS011;1643;47.746;9.000;2022-09-13T11:45:24;2.30;;;2.03;;
3261;SDS011;1643;47.746;9.000;2022-09-13T11:56:07;2.93;;;2.63;;
3261;SDS011;1643;47.746;9.000;2022-09-13T12:01:09;2.20;;;2.00;;
3261;SDS011;1643;47.746;9.000;2022-09-13T12:06:04;4.47;;;2.20;;
3261;SDS011;1643;47.746;9.000;2022-09-13T12:08:49;2.10;;;1.93;;
3261;SDS011;1643;47.746;9.000;2022-09-13T12:11:22;2.57;;;2.10;;
3261;SDS011;1643;47.746;9.000;2022-09-13T12:13:56;4.47;;;2.00;;
3261;SDS011;1643;47.746;9.000;2022-09-13T12:16:34;2.70;;;2.23;;
3261;SDS011;1643;47.746;9.000;2022-09-13T12:19:03;4.07;;;2.00;;
3261;SDS011;1643;47.746;9.000;2022-09-13T12:21:39;3.80;;;2.30;;
3261;SDS011;1643;47.746;9.000;2022-09-13T12:24:15;4.30;;;2.17;;
3261;SDS011;1643;47.746;9.000;2022-09-13T12:29:55;3.67;;;1.80;;
3261;SDS011;1643;47.746;9.000;2022-09-13T12:32:27;2.33;;;2.10;;
3261;SDS011;1643;47.746;9.000;2022-09-13T12:34:57;2.40;;;1.73;;
3261;SDS011;1643;47.746;9.000;2022-09-13T12:37:51;2.30;;;2.10;;
3261;SDS011;1643;47.746;9.000;2022-09-13T12:43:08;1.70;;;1.60;;
3261;SDS011;1643;47.746;9.000;2022-09-13T12:46:03;2.07;;;1.83;;
3261;SDS011;1643;47.746;9.000;2022-09-13T13:05:27;2.70;;;1.60;;
3261;SDS011;1643;47.746;9.000;2022-09-13T13:08:01;2.13;;;1.53;;
3261;SDS011;1643;47.746;9.000;2022-09-13T13:10:40;2.00;;;1.60;;
3261;SDS011;1643;47.746;9.000;2022-09-13T13:13:13;1.73;;;1.57;;
3261;SDS011;1643;47.746;9.000;2022-09-13T13:18:26;1.70;;;1.60;;
3261;SDS011;1643;47.746;9.000;2022-09-13T13:33:53;1.57;;;1.47;;
3261;SDS011;1643;47.746;9.000;2022-09-13T13:36:43;1.70;;;1.60;;
3261;SDS011;1643;47.746;9.000;2022-09-13T13:47:39;3.43;;;1.50;;
3261;SDS011;1643;47.746;9.000;2022-09-13T14:00:11;3.63;;;1.83;;
3261;SDS011;1643;47.746;9.000;2022-09-13T14:10:58;2.17;;;1.77;;
3261;SDS011;1643;47.746;9.000;2022-09-13T14:16:04;1.97;;;1.80;;
3261;SDS011;1643;47.746;9.000;2022-09-13T14:21:27;1.63;;;1.53;;
3261;SDS011;1643;47.746;9.000;2022-09-13T14:26:47;4.37;;;1.63;;
3261;SDS011;1643;47.746;9.000;2022-09-13T14:29:16;2.00;;;1.80;;
3261;SDS011;1643;47.746;9.000;2022-09-13T14:31:47;2.30;;;1.33;;
3261;SDS011;1643;47.746;9.000;2022-09-13T14:34:22;1.63;;;1.53;;
3261;SDS011;1643;47.746;9.000;2022-09-13T14:36:58;1.77;;;1.67;;
3261;SDS011;1643;47.746;9.000;2022-09-13T14:39:26;1.40;;;1.30;;
3261;SDS011;1643;47.746;9.000;2022-09-13T14:41:57;1.40;;;1.30;;
3261;SDS011;1643;47.746;9.000;2022-09-13T14:44:31;5.33;;;1.33;;
3261;SDS011;1643;47.746;9.000;2022-09-13T14:47:11;1.10;;;1.10;;
3261;SDS011;1643;47.746;9.000;2022-09-13T14:49:45;2.97;;;1.30;;
3261;SDS011;1643;47.746;9.000;2022-09-13T14:55:38;1.40;;;1.30;;
3261;SDS011;1643;47.746;9.000;2022-09-13T14:58:17;2.43;;;1.60;;
3261;SDS011;1643;47.746;9.000;2022-09-13T15:03:27;1.77;;;1.67;;
3261;SDS011;1643;47.746;9.000;2022-09-13T15:05:54;1.50;;;1.40;;
3261;SDS011;1643;47.746;9.000;2022-09-13T15:11:05;2.10;;;1.63;;
3261;SDS011;1643;47.746;9.000;2022-09-13T15:13:36;1.70;;;1.60;;
3261;SDS011;1643;47.746;9.000;2022-09-13T15:16:25;1.70;;;1.40;;
3261;SDS011;1643;47.746;9.000;2022-09-13T15:21:40;2.17;;;1.60;;
3261;SDS011;1643;47.746;9.000;2022-09-13T15:24:13;2.30;;;1.43;;
3261;SDS011;1643;47.746;9.000;2022-09-13T15:26:45;1.77;;;1.27;;
3261;SDS011;1643;47.746;9.000;2022-09-13T15:29:15;2.37;;;1.50;;
3261;SDS011;1643;47.746;9.000;2022-09-13T15:31:43;1.80;;;1.70;;
3261;SDS011;1643;47.746;9.000;2022-09-13T15:36:45;1.47;;;1.37;;
3261;SDS011;1643;47.746;9.000;2022-09-13T15:41:42;1.30;;;1.20;;
3261;SDS011;1643;47.746;9.000;2022-09-13T15:44:16;1.60;;;1.50;;
3261;SDS011;1643;47.746;9.000;2022-09-13T15:46:43;1.40;;;1.30;;
3261;SDS011;1643;47.746;9.000;2022-09-13T15:49:14;1.40;;;1.30;;
3261;SDS011;1643;47.746;9.000;2022-09-13T15:51:42;1.23;;;1.10;;
3261;SDS011;1643;47.746;9.000;2022-09-13T15:54:11;1.20;;;1.10;;
3261;SDS011;1643;47.746;9.000;2022-09-13T15:56:40;1.57;;;1.47;;
3261;SDS011;1643;47.746;9.000;2022-09-13T15:59:15;1.70;;;1.60;;
3261;SDS011;1643;47.746;9.000;2022-09-13T16:01:46;4.40;;;1.50;;
3261;SDS011;1643;47.746;9.000;2022-09-13T16:04:13;3.63;;;1.60;;
3261;SDS011;1643;47.746;9.000;2022-09-13T16:06:39;1.63;;;1.53;;
3261;SDS011;1643;47.746;9.000;2022-09-13T16:09:38;2.60;;;1.30;;
3261;SDS011;1643;47.746;9.000;2022-09-13T16:11:57;2.37;;;1.53;;
3261;SDS011;1643;47.746;9.000;2022-09-13T16:14:23;2.17;;;1.60;;
3261;SDS011;1643;47.746;9.000;2022-09-13T16:16:48;3.07;;;1.53;;
3261;SDS011;1643;47.746;9.000;2022-09-13T16:19:17;1.57;;;1.30;;
3261;SDS011;1643;47.746;9.000;2022-09-13T16:21:44;1.70;;;1.60;;
3261;SDS011;1643;47.746;9.000;2022-09-13T16:24:10;1.60;;;1.50;;
3261;SDS011;1643;47.746;9.000;2022-09-13T16:26:35;1.60;;;1.33;;
3261;SDS011;1643;47.746;9.000;2022-09-13T16:29:02;1.50;;;1.40;;
3261;SDS011;1643;47.746;9.000;2022-09-13T16:31:28;1.77;;;1.67;;
3261;SDS011;1643;47.746;9.000;2022-09-13T16:33:53;1.60;;;1.50;;
3261;SDS011;1643;47.746;9.000;2022-09-13T16:36:19;2.10;;;1.77;;
3261;SDS011;1643;47.746;9.000;2022-09-13T16:38:45;2.10;;;1.77;;
3261;SDS011;1643;47.746;9.000;2022-09-13T16:41:10;1.70;;;1.60;;
3261;SDS011;1643;47.746;9.000;2022-09-13T16:43:36;1.87;;;1.50;;
3261;SDS011;1643;47.746;9.000;2022-09-13T16:46:05;1.50;;;1.40;;
3261;SDS011;1643;47.746;9.000;2022-09-13T16:48:32;2.97;;;1.40;;
3261;SDS011;1643;47.746;9.000;2022-09-13T16:51:01;2.43;;;1.60;;
3261;SDS011;1643;47.746;9.000;2022-09-13T16:53:35;2.20;;;1.47;;
3261;SDS011;1643;47.746;9.000;2022-09-13T16:56:06;1.50;;;1.40;;
3261;SDS011;1643;47.746;9.000;2022-09-13T16:58:36;3.00;;;2.20;;
3261;SDS011;1643;47.746;9.000;2022-09-13T17:01:06;1.67;;;1.57;;
3261;SDS011;1643;47.746;9.000;2022-09-13T17:03:33;2.10;;;1.90;;
3261;SDS011;1643;47.746;9.000;2022-09-13T17:06:03;5.90;;;1.93;;
3261;SDS011;1643;47.746;9.000;2022-09-13T17:08:35;2.90;;;1.40;;
3261;SDS011;1643;47.746;9.000;2022-09-13T17:11:09;1.80;;;1.70;;
3261;SDS011;1643;47.746;9.000;2022-09-13T17:13:37;2.40;;;1.37;;
3261;SDS011;1643;47.746;9.000;2022-09-13T17:16:04;4.83;;;1.97;;
3261;SDS011;1643;47.746;9.000;2022-09-13T17:18:32;1.63;;;1.53;;
3261;SDS011;1643;47.746;9.000;2022-09-13T17:20:58;3.13;;;1.70;;
3261;SDS011;1643;47.746;9.000;2022-09-13T17:23:24;3.13;;;1.60;;
3261;SDS011;1643;47.746;9.000;2022-09-13T17:25:50;3.30;;;1.83;;
3261;SDS011;1643;47.746;9.000;2022-09-13T17:28:17;1.77;;;1.67;;
3261;SDS011;1643;47.746;9.000;2022-09-13T17:30:43;1.60;;;1.50;;
3261;SDS011;1643;47.746;9.000;2022-09-13T17:33:10;3.77;;;2.00;;
3261;SDS011;1643;47.746;9.000;2022-09-13T17:35:36;1.57;;;1.47;;
3261;SDS011;1643;47.746;9.000;2022-09-13T17:38:02;2.00;;;1.90;;
3261;SDS011;1643;47.746;9.000;2022-09-13T17:40:28;1.60;;;1.50;;
3261;SDS011;1643;47.746;9.000;2022-09-13T17:42:55;3.80;;;1.60;;
3261;SDS011;1643;47.746;9.000;2022-09-13T17:45:20;1.63;;;1.53;;
3261;SDS011;1643;47.746;9.000;2022-09-13T17:47:47;1.97;;;1.77;;
3261;SDS011;1643;47.746;9.000;2022-09-13T17:50:13;3.20;;;2.10;;
3261;SDS011;1643;47.746;9.000;2022-09-13T17:52:38;3.83;;;1.30;;
3261;SDS011;1643;47.746;9.000;2022-09-13T17:55:05;1.73;;;1.63;;
3261;SDS011;1643;47.746;9.000;2022-09-13T17:57:31;3.80;;;1.70;;
3261;SDS011;1643;47.746;9.000;2022-09-13T17:59:57;1.97;;;1.83;;
3261;SDS011;1643;47.746;9.000;2022-09-13T18:02:23;3.50;;;2.00;;
3261;SDS011;1643;47.746;9.000;2022-09-13T18:04:50;2.00;;;1.80;;
3261;SDS011;1643;47.746;9.000;2022-09-13T18:07:16;2.50;;;1.80;;
3261;SDS011;1643;47.746;9.000;2022-09-13T18:09:41;1.73;;;1.60;;
3261;SDS011;1643;47.746;9.000;2022-09-13T18:12:08;4.70;;;1.80;;
3261;SDS011;1643;47.746;9.000;2022-09-13T18:14:34;1.60;;;1.50;;
3261;SDS011;1643;47.746;9.000;2022-09-13T18:16:59;1.77;;;1.63;;
3261;SDS011;1643;47.746;9.000;2022-09-13T18:19:25;2.03;;;1.70;;
3261;SDS011;1643;47.746;9.000;2022-09-13T18:21:52;3.30;;;1.90;;
3261;SDS011;1643;47.746;9.000;2022-09-13T18:24:17;3.53;;;1.93;;
3261;SDS011;1643;47.746;9.000;2022-09-13T18:26:43;2.33;;;2.20;;
3261;SDS011;1643;47.746;9.000;2022-09-13T18:29:10;2.03;;;1.83;;
3261;SDS011;1643;47.746;9.000;2022-09-13T18:31:37;3.33;;;2.10;;
3261;SDS011;1643;47.746;9.000;2022-09-13T18:34:05;1.60;;;1.50;;
3261;SDS011;1643;47.746;9.000;2022-09-13T18:36:34;4.50;;;1.80;;
3261;SDS011;1643;47.746;9.000;2022-09-13T18:39:00;1.80;;;1.60;;
3261;SDS011;1643;47.746;9.000;2022-09-13T18:41:38;2.80;;;2.03;;
3261;SDS011;1643;47.746;9.000;2022-09-13T18:44:09;1.60;;;1.50;;
3261;SDS011;1643;47.746;9.000;2022-09-13T18:46:35;2.53;;;1.70;;
3261;SDS011;1643;47.746;9.000;2022-09-13T18:49:01;2.00;;;1.80;;
3261;SDS011;1643;47.746;9.000;2022-09-13T18:53:56;1.83;;;1.60;;
3261;SDS011;1643;47.746;9.000;2022-09-13T18:56:22;2.13;;;1.83;;
3261;SDS011;1643;47.746;9.000;2022-09-13T18:58:49;2.93;;;2.10;;
3261;SDS011;1643;47.746;9.000;2022-09-13T19:01:26;2.17;;;1.80;;
3261;SDS011;1643;47.746;9.000;2022-09-13T19:04:27;5.73;;;1.87;;
3261;SDS011;1643;47.746;9.000;2022-09-13T19:06:53;2.20;;;2.00;;
3261;SDS011;1643;47.746;9.000;2022-09-13T19:09:21;1.80;;;1.70;;
3261;SDS011;1643;47.746;9.000;2022-09-13T19:11:49;3.63;;;2.10;;
3261;SDS011;1643;47.746;9.000;2022-09-13T19:14:23;2.13;;;1.93;;
3261;SDS011;1643;47.746;9.000;2022-09-13T19:16:51;1.80;;;1.70;;
3261;SDS011;1643;47.746;9.000;2022-09-13T19:19:19;2.63;;;2.43;;
3261;SDS011;1643;47.746;9.000;2022-09-13T19:21:46;2.53;;;2.00;;
3261;SDS011;1643;47.746;9.000;2022-09-13T19:24:12;2.00;;;1.90;;
3261;SDS011;1643;47.746;9.000;2022-09-13T19:26:41;2.00;;;1.90;;